OJAM/ADJ METAR and TAF weather

Enter ICAO airport designator
Station Type Date Time Source
OJAM METAR 2020/01/18 16:00 UTC NOAA

OJAM 181600Z 27005KT 2500 -RA SCT015 BKN020 BKN025 08/07 Q1016 NOSIG


Station Type Date Time Source
OJAM Decoded METAR 2020/01/18 16:00 UTC NOAA

Amman Airport, Jordan (OJAM) 31-59N 035-59E 768M
Jan 18, 2020 - 11:00 AM EST / 2020.01.18 1600 UTC
Wind: from the W (270 degrees) at 6 MPH (5 KT):0
Visibility: 1 mile(s):0
Sky conditions: mostly cloudy
Weather: light rain
Temperature: 46 F (8 C)
Dew Point: 44 F (7 C)
Relative Humidity: 93%
Pressure (altimeter): 30.00 in. Hg (1016 hPa)
ob: OJAM 181600Z 27005KT 2500 -RA SCT015 BKN020 BKN025 08/07 Q1016 NOSIG
cycle: 16

Station Type Date Time Source
OJAM TAF 2020/01/18 12:15 UTC NOAA

TAF OJAM 181050Z 1812/1918 26010KT 3000 -RA SCT020 BKN025 PROB30 1812/1815 2000 RA FEW020TCU BKN025
TEMPO 1815/1906 27018KT 2000 TSGR FEW018CB BKN020

Example: see airport list